sensor_id;sensor_type;location;lat;lon;timestamp;pressure;altitude;pressure_sealevel;temperature
54746;BMP180;40640;48.130;11.356;2022-08-01T00:00:50;95720.00;;;21.50
54746;BMP180;40640;48.130;11.356;2022-08-01T00:04:54;95726.00;;;21.40
54746;BMP180;40640;48.130;11.356;2022-08-01T00:08:57;95726.00;;;21.40
54746;BMP180;40640;48.130;11.356;2022-08-01T00:13:00;95734.00;;;21.40
54746;BMP180;40640;48.130;11.356;2022-08-01T00:17:03;95720.00;;;21.30
54746;BMP180;40640;48.130;11.356;2022-08-01T00:21:09;95727.00;;;21.30
54746;BMP180;40640;48.130;11.356;2022-08-01T00:25:12;95723.00;;;21.30
54746;BMP180;40640;48.130;11.356;2022-08-01T00:29:15;95723.00;;;21.20
54746;BMP180;40640;48.130;11.356;2022-08-01T00:33:37;95729.00;;;21.20
54746;BMP180;40640;48.130;11.356;2022-08-01T00:37:42;95732.00;;;21.10
54746;BMP180;40640;48.130;11.356;2022-08-01T00:41:45;95733.00;;;21.10
54746;BMP180;40640;48.130;11.356;2022-08-01T00:45:48;95729.00;;;21.10
54746;BMP180;40640;48.130;11.356;2022-08-01T00:49:51;95734.00;;;21.00
54746;BMP180;40640;48.130;11.356;2022-08-01T00:53:55;95732.00;;;21.00
54746;BMP180;40640;48.130;11.356;2022-08-01T00:57:58;95734.00;;;20.90
54746;BMP180;40640;48.130;11.356;2022-08-01T01:02:06;95736.00;;;20.80
54746;BMP180;40640;48.130;11.356;2022-08-01T01:06:23;95740.00;;;20.80
54746;BMP180;40640;48.130;11.356;2022-08-01T01:10:35;95730.00;;;20.80
54746;BMP180;40640;48.130;11.356;2022-08-01T01:14:42;95731.00;;;20.60
54746;BMP180;40640;48.130;11.356;2022-08-01T01:18:51;95743.00;;;20.50
54746;BMP180;40640;48.130;11.356;2022-08-01T01:23:07;95732.00;;;20.40
54746;BMP180;40640;48.130;11.356;2022-08-01T01:27:20;95738.00;;;20.40
54746;BMP180;40640;48.130;11.356;2022-08-01T01:31:25;95735.00;;;20.40
54746;BMP180;40640;48.130;11.356;2022-08-01T01:35:34;95741.00;;;20.30
54746;BMP180;40640;48.130;11.356;2022-08-01T01:39:38;95743.00;;;20.30
54746;BMP180;40640;48.130;11.356;2022-08-01T01:43:49;95739.00;;;20.30
54746;BMP180;40640;48.130;11.356;2022-08-01T01:47:54;95739.00;;;20.30
54746;BMP180;40640;48.130;11.356;2022-08-01T01:52:00;95745.00;;;20.30
54746;BMP180;40640;48.130;11.356;2022-08-01T01:56:04;95745.00;;;20.30
54746;BMP180;40640;48.130;11.356;2022-08-01T02:00:09;95744.00;;;20.30
54746;BMP180;40640;48.130;11.356;2022-08-01T02:04:14;95743.00;;;20.40
54746;BMP180;40640;48.130;11.356;2022-08-01T02:08:18;95738.00;;;20.40
54746;BMP180;40640;48.130;11.356;2022-08-01T02:12:21;95743.00;;;20.40
54746;BMP180;40640;48.130;11.356;2022-08-01T02:16:26;95751.00;;;20.20
54746;BMP180;40640;48.130;11.356;2022-08-01T02:20:33;95749.00;;;20.20
54746;BMP180;40640;48.130;11.356;2022-08-01T02:24:39;95752.00;;;20.20
54746;BMP180;40640;48.130;11.356;2022-08-01T02:28:46;95761.00;;;20.10
54746;BMP180;40640;48.130;11.356;2022-08-01T02:32:52;95760.00;;;20.10
54746;BMP180;40640;48.130;11.356;2022-08-01T02:36:58;95757.00;;;20.00
54746;BMP180;40640;48.130;11.356;2022-08-01T02:41:06;95755.00;;;19.90
54746;BMP180;40640;48.130;11.356;2022-08-01T02:45:11;95752.00;;;19.80
54746;BMP180;40640;48.130;11.356;2022-08-01T02:49:16;95756.00;;;19.80
54746;BMP180;40640;48.130;11.356;2022-08-01T02:53:24;95754.00;;;19.70
54746;BMP180;40640;48.130;11.356;2022-08-01T02:57:46;95763.00;;;19.60
54746;BMP180;40640;48.130;11.356;2022-08-01T03:01:59;95760.00;;;19.70
54746;BMP180;40640;48.130;11.356;2022-08-01T03:06:04;95760.00;;;19.70
54746;BMP180;40640;48.130;11.356;2022-08-01T03:10:09;95764.00;;;19.70
54746;BMP180;40640;48.130;11.356;2022-08-01T03:14:13;95767.00;;;19.80
54746;BMP180;40640;48.130;11.356;2022-08-01T03:18:17;95767.00;;;19.70
54746;BMP180;40640;48.130;11.356;2022-08-01T03:22:23;95765.00;;;19.60
54746;BMP180;40640;48.130;11.356;2022-08-01T03:26:29;95766.00;;;19.60
54746;BMP180;40640;48.130;11.356;2022-08-01T03:30:33;95768.00;;;19.60
54746;BMP180;40640;48.130;11.356;2022-08-01T03:34:37;95766.00;;;19.50
54746;BMP180;40640;48.130;11.356;2022-08-01T03:38:40;95777.00;;;19.50
54746;BMP180;40640;48.130;11.356;2022-08-01T03:42:48;95778.00;;;19.40
54746;BMP180;40640;48.130;11.356;2022-08-01T03:46:58;95770.00;;;19.40
54746;BMP180;40640;48.130;11.356;2022-08-01T03:51:01;95784.00;;;19.40
54746;BMP180;40640;48.130;11.356;2022-08-01T03:55:06;95777.00;;;19.40
54746;BMP180;40640;48.130;11.356;2022-08-01T03:59:12;95785.00;;;19.40
54746;BMP180;40640;48.130;11.356;2022-08-01T04:03:15;95788.00;;;19.40
54746;BMP180;40640;48.130;11.356;2022-08-01T04:07:22;95789.00;;;19.40
54746;BMP180;40640;48.130;11.356;2022-08-01T04:11:27;95790.00;;;19.50
54746;BMP180;40640;48.130;11.356;2022-08-01T04:15:31;95803.00;;;19.50
54746;BMP180;40640;48.130;11.356;2022-08-01T04:19:34;95799.00;;;19.40
54746;BMP180;40640;48.130;11.356;2022-08-01T04:23:38;95806.00;;;19.40
54746;BMP180;40640;48.130;11.356;2022-08-01T04:27:46;95808.00;;;19.40
54746;BMP180;40640;48.130;11.356;2022-08-01T04:31:55;95810.00;;;19.40
54746;BMP180;40640;48.130;11.356;2022-08-01T04:36:01;95808.00;;;19.40
54746;BMP180;40640;48.130;11.356;2022-08-01T04:40:06;95809.00;;;19.40
54746;BMP180;40640;48.130;11.356;2022-08-01T04:44:11;95819.00;;;19.40
54746;BMP180;40640;48.130;11.356;2022-08-01T04:48:17;95819.00;;;19.40
54746;BMP180;40640;48.130;11.356;2022-08-01T04:52:32;95812.00;;;19.40
54746;BMP180;40640;48.130;11.356;2022-08-01T04:56:35;95819.00;;;19.50
54746;BMP180;40640;48.130;11.356;2022-08-01T05:00:38;95820.00;;;19.60
54746;BMP180;40640;48.130;11.356;2022-08-01T05:04:43;95824.00;;;19.70
54746;BMP180;40640;48.130;11.356;2022-08-01T05:08:45;95825.00;;;19.90
54746;BMP180;40640;48.130;11.356;2022-08-01T05:12:48;95821.00;;;20.10
54746;BMP180;40640;48.130;11.356;2022-08-01T05:16:52;95820.00;;;20.30
54746;BMP180;40640;48.130;11.356;2022-08-01T05:20:56;95815.00;;;20.50
54746;BMP180;40640;48.130;11.356;2022-08-01T05:24:59;95829.00;;;20.70
54746;BMP180;40640;48.130;11.356;2022-08-01T05:29:02;95834.00;;;21.10
54746;BMP180;40640;48.130;11.356;2022-08-01T05:33:05;95835.00;;;21.00
54746;BMP180;40640;48.130;11.356;2022-08-01T05:37:09;95834.00;;;21.00
54746;BMP180;40640;48.130;11.356;2022-08-01T05:41:12;95830.00;;;21.30
54746;BMP180;40640;48.130;11.356;2022-08-01T05:45:15;95836.00;;;21.60
54746;BMP180;40640;48.130;11.356;2022-08-01T05:49:18;95843.00;;;21.70
54746;BMP180;40640;48.130;11.356;2022-08-01T05:53:22;95841.00;;;22.00
54746;BMP180;40640;48.130;11.356;2022-08-01T05:57:25;95840.00;;;22.30
54746;BMP180;40640;48.130;11.356;2022-08-01T06:01:28;95839.00;;;23.70
54746;BMP180;40640;48.130;11.356;2022-08-01T06:05:30;95834.00;;;26.50
54746;BMP180;40640;48.130;11.356;2022-08-01T06:09:35;95835.00;;;29.90
54746;BMP180;40640;48.130;11.356;2022-08-01T06:13:37;95819.00;;;32.10
54746;BMP180;40640;48.130;11.356;2022-08-01T06:17:49;95821.00;;;31.60
54746;BMP180;40640;48.130;11.356;2022-08-01T06:21:52;95831.00;;;33.10
54746;BMP180;40640;48.130;11.356;2022-08-01T06:25:56;95833.00;;;34.40
54746;BMP180;40640;48.130;11.356;2022-08-01T06:29:59;95834.00;;;37.10
54746;BMP180;40640;48.130;11.356;2022-08-01T06:34:02;95841.00;;;38.70
54746;BMP180;40640;48.130;11.356;2022-08-01T06:38:05;95848.00;;;38.90
54746;BMP180;40640;48.130;11.356;2022-08-01T06:42:09;95856.00;;;37.50
54746;BMP180;40640;48.130;11.356;2022-08-01T06:46:12;95865.00;;;34.70
54746;BMP180;40640;48.130;11.356;2022-08-01T06:50:14;95869.00;;;32.00
54746;BMP180;40640;48.130;11.356;2022-08-01T06:54:17;95879.00;;;31.80
54746;BMP180;40640;48.130;11.356;2022-08-01T06:58:21;95877.00;;;30.20
54746;BMP180;40640;48.130;11.356;2022-08-01T07:02:32;95874.00;;;29.50
54746;BMP180;40640;48.130;11.356;2022-08-01T07:06:35;95887.00;;;27.90
54746;BMP180;40640;48.130;11.356;2022-08-01T07:10:37;95890.00;;;27.80
54746;BMP180;40640;48.130;11.356;2022-08-01T07:14:42;95892.00;;;27.60
54746;BMP180;40640;48.130;11.356;2022-08-01T07:18:44;95886.00;;;27.60
54746;BMP180;40640;48.130;11.356;2022-08-01T07:22:47;95883.00;;;27.30
54746;BMP180;40640;48.130;11.356;2022-08-01T07:26:51;95889.00;;;26.50
54746;BMP180;40640;48.130;11.356;2022-08-01T07:30:57;95891.00;;;25.80
54746;BMP180;40640;48.130;11.356;2022-08-01T07:35:00;95896.00;;;26.00
54746;BMP180;40640;48.130;11.356;2022-08-01T07:39:03;95896.00;;;25.60
54746;BMP180;40640;48.130;11.356;2022-08-01T07:43:06;95892.00;;;25.60
54746;BMP180;40640;48.130;11.356;2022-08-01T07:47:10;95886.00;;;25.80
54746;BMP180;40640;48.130;11.356;2022-08-01T07:51:13;95884.00;;;25.70
54746;BMP180;40640;48.130;11.356;2022-08-01T07:55:15;95887.00;;;25.90
54746;BMP180;40640;48.130;11.356;2022-08-01T07:59:18;95893.00;;;26.00
54746;BMP180;40640;48.130;11.356;2022-08-01T08:03:28;95887.00;;;26.30
54746;BMP180;40640;48.130;11.356;2022-08-01T08:07:31;95881.00;;;26.50
54746;BMP180;40640;48.130;11.356;2022-08-01T08:11:33;95883.00;;;26.60
54746;BMP180;40640;48.130;11.356;2022-08-01T08:15:36;95883.00;;;26.80
54746;BMP180;40640;48.130;11.356;2022-08-01T08:19:41;95874.00;;;26.60
54746;BMP180;40640;48.130;11.356;2022-08-01T08:23:44;95876.00;;;27.00
54746;BMP180;40640;48.130;11.356;2022-08-01T08:28:04;95867.00;;;27.00
54746;BMP180;40640;48.130;11.356;2022-08-01T08:32:07;95868.00;;;26.70
54746;BMP180;40640;48.130;11.356;2022-08-01T08:36:13;95871.00;;;26.80
54746;BMP180;40640;48.130;11.356;2022-08-01T08:40:16;95866.00;;;27.60
54746;BMP180;40640;48.130;11.356;2022-08-01T08:44:19;95864.00;;;28.20
54746;BMP180;40640;48.130;11.356;2022-08-01T08:48:22;95855.00;;;28.90
54746;BMP180;40640;48.130;11.356;2022-08-01T08:52:30;95856.00;;;28.70
54746;BMP180;40640;48.130;11.356;2022-08-01T08:56:37;95852.00;;;28.50
54746;BMP180;40640;48.130;11.356;2022-08-01T09:00:40;95845.00;;;28.90
54746;BMP180;40640;48.130;11.356;2022-08-01T09:04:49;95842.00;;;29.10
54746;BMP180;40640;48.130;11.356;2022-08-01T09:08:53;95840.00;;;29.50
54746;BMP180;40640;48.130;11.356;2022-08-01T09:13:07;95846.00;;;30.00
54746;BMP180;40640;48.130;11.356;2022-08-01T09:17:12;95845.00;;;30.50
54746;BMP180;40640;48.130;11.356;2022-08-01T09:21:16;95841.00;;;29.50
54746;BMP180;40640;48.130;11.356;2022-08-01T09:25:21;95830.00;;;30.60
54746;BMP180;40640;48.130;11.356;2022-08-01T09:29:31;95838.00;;;31.40
54746;BMP180;40640;48.130;11.356;2022-08-01T09:33:52;95836.00;;;31.30
54746;BMP180;40640;48.130;11.356;2022-08-01T09:38:12;95833.00;;;30.50
54746;BMP180;40640;48.130;11.356;2022-08-01T09:42:21;95831.00;;;31.00
54746;BMP180;40640;48.130;11.356;2022-08-01T09:46:30;95831.00;;;31.00
54746;BMP180;40640;48.130;11.356;2022-08-01T09:50:39;95828.00;;;30.00
54746;BMP180;40640;48.130;11.356;2022-08-01T09:54:44;95827.00;;;30.80
54746;BMP180;40640;48.130;11.356;2022-08-01T09:58:57;95824.00;;;31.60
54746;BMP180;40640;48.130;11.356;2022-08-01T10:03:19;95829.00;;;30.60
54746;BMP180;40640;48.130;11.356;2022-08-01T10:07:22;95826.00;;;31.70
54746;BMP180;40640;48.130;11.356;2022-08-01T10:11:43;95824.00;;;32.10
54746;BMP180;40640;48.130;11.356;2022-08-01T10:15:47;95846.00;;;31.60
54746;BMP180;40640;48.130;11.356;2022-08-01T10:19:51;95833.00;;;31.10
54746;BMP180;40640;48.130;11.356;2022-08-01T10:24:00;95821.00;;;31.70
54746;BMP180;40640;48.130;11.356;2022-08-01T10:28:11;95821.00;;;31.90
54746;BMP180;40640;48.130;11.356;2022-08-01T10:32:23;95820.00;;;30.50
54746;BMP180;40640;48.130;11.356;2022-08-01T10:36:29;95820.00;;;30.60
54746;BMP180;40640;48.130;11.356;2022-08-01T10:40:33;95814.00;;;32.10
54746;BMP180;40640;48.130;11.356;2022-08-01T10:44:37;95806.00;;;32.60
54746;BMP180;40640;48.130;11.356;2022-08-01T10:48:45;95836.00;;;31.80
54746;BMP180;40640;48.130;11.356;2022-08-01T10:53:12;95834.00;;;31.80
54746;BMP180;40640;48.130;11.356;2022-08-01T10:57:23;95807.00;;;31.30
54746;BMP180;40640;48.130;11.356;2022-08-01T11:01:37;95799.00;;;32.60
54746;BMP180;40640;48.130;11.356;2022-08-01T11:05:51;95825.00;;;31.70
54746;BMP180;40640;48.130;11.356;2022-08-01T11:10:03;95830.00;;;30.50
54746;BMP180;40640;48.130;11.356;2022-08-01T11:14:15;95801.00;;;31.40
54746;BMP180;40640;48.130;11.356;2022-08-01T11:18:31;95804.00;;;31.80
54746;BMP180;40640;48.130;11.356;2022-08-01T11:27:28;95796.00;;;32.50
54746;BMP180;40640;48.130;11.356;2022-08-01T11:31:34;95798.00;;;33.40
54746;BMP180;40640;48.130;11.356;2022-08-01T11:40:19;95770.00;;;32.90
54746;BMP180;40640;48.130;11.356;2022-08-01T11:44:25;95782.00;;;33.50
54746;BMP180;40640;48.130;11.356;2022-08-01T11:48:31;95782.00;;;32.40
54746;BMP180;40640;48.130;11.356;2022-08-01T11:52:35;95783.00;;;33.20
54746;BMP180;40640;48.130;11.356;2022-08-01T11:56:42;95771.00;;;35.00
54746;BMP180;40640;48.130;11.356;2022-08-01T12:00:51;95776.00;;;35.30
54746;BMP180;40640;48.130;11.356;2022-08-01T12:04:56;95768.00;;;35.80
54746;BMP180;40640;48.130;11.356;2022-08-01T12:13:39;95767.00;;;35.60
54746;BMP180;40640;48.130;11.356;2022-08-01T12:17:44;95749.00;;;38.20
54746;BMP180;40640;48.130;11.356;2022-08-01T12:22:07;95747.00;;;39.00
54746;BMP180;40640;48.130;11.356;2022-08-01T12:26:10;95745.00;;;38.90
54746;BMP180;40640;48.130;11.356;2022-08-01T12:30:31;95732.00;;;42.70
54746;BMP180;40640;48.130;11.356;2022-08-01T12:34:36;95722.00;;;43.00
54746;BMP180;40640;48.130;11.356;2022-08-01T12:38:39;95716.00;;;47.10
54746;BMP180;40640;48.130;11.356;2022-08-01T12:42:43;95736.00;;;47.60
54746;BMP180;40640;48.130;11.356;2022-08-01T12:46:47;95733.00;;;41.50
54746;BMP180;40640;48.130;11.356;2022-08-01T12:50:52;95718.00;;;47.00
54746;BMP180;40640;48.130;11.356;2022-08-01T12:55:12;95709.00;;;47.80
54746;BMP180;40640;48.130;11.356;2022-08-01T12:59:23;95756.00;;;41.80
54746;BMP180;40640;48.130;11.356;2022-08-01T13:03:29;95774.00;;;36.40
54746;BMP180;40640;48.130;11.356;2022-08-01T13:07:42;95775.00;;;34.90
54746;BMP180;40640;48.130;11.356;2022-08-01T13:11:46;95769.00;;;35.00
54746;BMP180;40640;48.130;11.356;2022-08-01T13:16:06;95781.00;;;33.60
54746;BMP180;40640;48.130;11.356;2022-08-01T13:20:25;95774.00;;;32.00
54746;BMP180;40640;48.130;11.356;2022-08-01T13:24:29;95782.00;;;31.80
54746;BMP180;40640;48.130;11.356;2022-08-01T13:28:32;95785.00;;;32.10
54746;BMP180;40640;48.130;11.356;2022-08-01T13:32:38;95786.00;;;31.40
54746;BMP180;40640;48.130;11.356;2022-08-01T13:36:42;95788.00;;;30.70
54746;BMP180;40640;48.130;11.356;2022-08-01T13:40:50;95793.00;;;30.30
54746;BMP180;40640;48.130;11.356;2022-08-01T13:45:00;95804.00;;;29.80
54746;BMP180;40640;48.130;11.356;2022-08-01T13:49:05;95824.00;;;29.60
54746;BMP180;40640;48.130;11.356;2022-08-01T13:53:18;95810.00;;;28.90
54746;BMP180;40640;48.130;11.356;2022-08-01T13:57:21;95817.00;;;28.60
54746;BMP180;40640;48.130;11.356;2022-08-01T14:01:24;95816.00;;;28.80
54746;BMP180;40640;48.130;11.356;2022-08-01T14:05:34;95805.00;;;29.40
54746;BMP180;40640;48.130;11.356;2022-08-01T14:09:38;95797.00;;;29.80
54746;BMP180;40640;48.130;11.356;2022-08-01T14:14:01;95798.00;;;29.80
54746;BMP180;40640;48.130;11.356;2022-08-01T14:18:05;95795.00;;;29.40
54746;BMP180;40640;48.130;11.356;2022-08-01T14:22:09;95799.00;;;28.90
54746;BMP180;40640;48.130;11.356;2022-08-01T14:26:14;95806.00;;;28.40
54746;BMP180;40640;48.130;11.356;2022-08-01T14:30:17;95805.00;;;28.20
54746;BMP180;40640;48.130;11.356;2022-08-01T14:34:20;95818.00;;;28.00
54746;BMP180;40640;48.130;11.356;2022-08-01T14:38:23;95818.00;;;27.70
54746;BMP180;40640;48.130;11.356;2022-08-01T14:42:33;95830.00;;;27.30
54746;BMP180;40640;48.130;11.356;2022-08-01T14:46:36;95837.00;;;26.90
54746;BMP180;40640;48.130;11.356;2022-08-01T14:50:57;95824.00;;;26.60
54746;BMP180;40640;48.130;11.356;2022-08-01T14:55:05;95820.00;;;26.40
54746;BMP180;40640;48.130;11.356;2022-08-01T14:59:09;95824.00;;;26.50
54746;BMP180;40640;48.130;11.356;2022-08-01T15:03:22;95827.00;;;26.40
54746;BMP180;40640;48.130;11.356;2022-08-01T15:07:25;95824.00;;;26.10
54746;BMP180;40640;48.130;11.356;2022-08-01T15:11:28;95826.00;;;26.00
54746;BMP180;40640;48.130;11.356;2022-08-01T15:15:36;95822.00;;;25.80
54746;BMP180;40640;48.130;11.356;2022-08-01T15:19:39;95803.00;;;25.60
54746;BMP180;40640;48.130;11.356;2022-08-01T15:23:43;95813.00;;;25.40
54746;BMP180;40640;48.130;11.356;2022-08-01T15:27:45;95807.00;;;25.30
54746;BMP180;40640;48.130;11.356;2022-08-01T15:31:50;95815.00;;;25.20
54746;BMP180;40640;48.130;11.356;2022-08-01T15:35:53;95815.00;;;25.00
54746;BMP180;40640;48.130;11.356;2022-08-01T15:39:57;95823.00;;;24.90
54746;BMP180;40640;48.130;11.356;2022-08-01T15:44:00;95834.00;;;24.90
54746;BMP180;40640;48.130;11.356;2022-08-01T15:48:05;95843.00;;;24.80
54746;BMP180;40640;48.130;11.356;2022-08-01T15:52:08;95849.00;;;24.60
54746;BMP180;40640;48.130;11.356;2022-08-01T15:56:23;95855.00;;;24.40
54746;BMP180;40640;48.130;11.356;2022-08-01T16:00:26;95858.00;;;24.30
54746;BMP180;40640;48.130;11.356;2022-08-01T16:04:41;95882.00;;;24.30
54746;BMP180;40640;48.130;11.356;2022-08-01T16:08:44;95880.00;;;24.00
54746;BMP180;40640;48.130;11.356;2022-08-01T16:12:47;95889.00;;;23.70
54746;BMP180;40640;48.130;11.356;2022-08-01T16:16:50;95862.00;;;23.60
54746;BMP180;40640;48.130;11.356;2022-08-01T16:20:55;95852.00;;;23.60
54746;BMP180;40640;48.130;11.356;2022-08-01T16:24:59;95840.00;;;23.60
54746;BMP180;40640;48.130;11.356;2022-08-01T16:29:02;95823.00;;;23.60
54746;BMP180;40640;48.130;11.356;2022-08-01T16:33:05;95801.00;;;23.70
54746;BMP180;40640;48.130;11.356;2022-08-01T16:37:29;95782.00;;;23.60
54746;BMP180;40640;48.130;11.356;2022-08-01T16:41:32;95797.00;;;23.50
54746;BMP180;40640;48.130;11.356;2022-08-01T16:45:38;95779.00;;;23.30
54746;BMP180;40640;48.130;11.356;2022-08-01T16:49:43;95769.00;;;23.70
54746;BMP180;40640;48.130;11.356;2022-08-01T16:53:47;95765.00;;;23.80
54746;BMP180;40640;48.130;11.356;2022-08-01T16:57:50;95750.00;;;24.20
54746;BMP180;40640;48.130;11.356;2022-08-01T17:01:53;95750.00;;;24.60
54746;BMP180;40640;48.130;11.356;2022-08-01T17:06:02;95756.00;;;24.80
54746;BMP180;40640;48.130;11.356;2022-08-01T17:10:08;95757.00;;;24.70
54746;BMP180;40640;48.130;11.356;2022-08-01T17:14:12;95759.00;;;24.50
54746;BMP180;40640;48.130;11.356;2022-08-01T17:18:15;95756.00;;;24.20
54746;BMP180;40640;48.130;11.356;2022-08-01T17:22:19;95768.00;;;23.80
54746;BMP180;40640;48.130;11.356;2022-08-01T17:26:23;95776.00;;;23.80
54746;BMP180;40640;48.130;11.356;2022-08-01T17:30:26;95775.00;;;23.60
54746;BMP180;40640;48.130;11.356;2022-08-01T17:34:29;95782.00;;;23.50
54746;BMP180;40640;48.130;11.356;2022-08-01T17:38:31;95790.00;;;23.30
54746;BMP180;40640;48.130;11.356;2022-08-01T17:42:36;95795.00;;;23.20
54746;BMP180;40640;48.130;11.356;2022-08-01T17:46:40;95798.00;;;22.60
54746;BMP180;40640;48.130;11.356;2022-08-01T17:50:43;95812.00;;;22.40
54746;BMP180;40640;48.130;11.356;2022-08-01T17:54:46;95805.00;;;22.40
54746;BMP180;40640;48.130;11.356;2022-08-01T17:58:51;95802.00;;;22.40
54746;BMP180;40640;48.130;11.356;2022-08-01T18:02:53;95807.00;;;22.50
54746;BMP180;40640;48.130;11.356;2022-08-01T18:06:56;95810.00;;;22.30
54746;BMP180;40640;48.130;11.356;2022-08-01T18:10:59;95807.00;;;22.40
54746;BMP180;40640;48.130;11.356;2022-08-01T18:15:05;95814.00;;;22.50
54746;BMP180;40640;48.130;11.356;2022-08-01T18:19:08;95814.00;;;22.50
54746;BMP180;40640;48.130;11.356;2022-08-01T18:23:10;95813.00;;;22.40
54746;BMP180;40640;48.130;11.356;2022-08-01T18:27:13;95807.00;;;22.60
54746;BMP180;40640;48.130;11.356;2022-08-01T18:31:17;95807.00;;;22.60
54746;BMP180;40640;48.130;11.356;2022-08-01T18:35:22;95808.00;;;22.20
54746;BMP180;40640;48.130;11.356;2022-08-01T18:39:45;95819.00;;;21.90
54746;BMP180;40640;48.130;11.356;2022-08-01T18:43:48;95815.00;;;21.70
54746;BMP180;40640;48.130;11.356;2022-08-01T18:48:05;95812.00;;;21.90
54746;BMP180;40640;48.130;11.356;2022-08-01T18:52:08;95819.00;;;22.20
54746;BMP180;40640;48.130;11.356;2022-08-01T18:56:11;95821.00;;;22.30
54746;BMP180;40640;48.130;11.356;2022-08-01T19:00:15;95832.00;;;22.30
54746;BMP180;40640;48.130;11.356;2022-08-01T19:04:19;95851.00;;;22.30
54746;BMP180;40640;48.130;11.356;2022-08-01T19:08:22;95854.00;;;22.20
54746;BMP180;40640;48.130;11.356;2022-08-01T19:12:25;95865.00;;;22.00
54746;BMP180;40640;48.130;11.356;2022-08-01T19:16:27;95865.00;;;21.60
54746;BMP180;40640;48.130;11.356;2022-08-01T19:20:32;95863.00;;;21.50
54746;BMP180;40640;48.130;11.356;2022-08-01T19:24:35;95870.00;;;21.50
54746;BMP180;40640;48.130;11.356;2022-08-01T19:28:43;95865.00;;;21.20
54746;BMP180;40640;48.130;11.356;2022-08-01T19:32:46;95880.00;;;21.00
54746;BMP180;40640;48.130;11.356;2022-08-01T19:36:53;95890.00;;;20.70
54746;BMP180;40640;48.130;11.356;2022-08-01T19:40:56;95905.00;;;20.80
54746;BMP180;40640;48.130;11.356;2022-08-01T19:44:59;95907.00;;;21.00
54746;BMP180;40640;48.130;11.356;2022-08-01T19:49:05;95899.00;;;21.10
54746;BMP180;40640;48.130;11.356;2022-08-01T19:53:10;95907.00;;;21.30
54746;BMP180;40640;48.130;11.356;2022-08-01T19:57:14;95894.00;;;21.30
54746;BMP180;40640;48.130;11.356;2022-08-01T20:01:18;95893.00;;;21.20
54746;BMP180;40640;48.130;11.356;2022-08-01T20:05:22;95888.00;;;21.30
54746;BMP180;40640;48.130;11.356;2022-08-01T20:09:26;95889.00;;;20.90
54746;BMP180;40640;48.130;11.356;2022-08-01T20:13:29;95907.00;;;20.80
54746;BMP180;40640;48.130;11.356;2022-08-01T20:17:40;95901.00;;;20.80
54746;BMP180;40640;48.130;11.356;2022-08-01T20:21:44;95884.00;;;20.60
54746;BMP180;40640;48.130;11.356;2022-08-01T20:26:06;95888.00;;;20.50
54746;BMP180;40640;48.130;11.356;2022-08-01T20:30:10;95886.00;;;20.60
54746;BMP180;40640;48.130;11.356;2022-08-01T20:34:15;95878.00;;;20.50
54746;BMP180;40640;48.130;11.356;2022-08-01T20:38:20;95889.00;;;20.40
54746;BMP180;40640;48.130;11.356;2022-08-01T20:42:26;95904.00;;;20.50
54746;BMP180;40640;48.130;11.356;2022-08-01T20:46:29;95911.00;;;20.50
54746;BMP180;40640;48.130;11.356;2022-08-01T20:50:35;95907.00;;;20.10
54746;BMP180;40640;48.130;11.356;2022-08-01T20:54:55;95915.00;;;20.30
54746;BMP180;40640;48.130;11.356;2022-08-01T20:59:09;95920.00;;;20.20
54746;BMP180;40640;48.130;11.356;2022-08-01T21:03:38;95930.00;;;20.00
54746;BMP180;40640;48.130;11.356;2022-08-01T21:07:47;95948.00;;;20.20
54746;BMP180;40640;48.130;11.356;2022-08-01T21:11:56;95974.00;;;20.20
54746;BMP180;40640;48.130;11.356;2022-08-01T21:16:02;96004.00;;;20.00
54746;BMP180;40640;48.130;11.356;2022-08-01T21:20:27;96005.00;;;19.90
54746;BMP180;40640;48.130;11.356;2022-08-01T21:24:37;96007.00;;;19.90
54746;BMP180;40640;48.130;11.356;2022-08-01T21:28:42;96015.00;;;19.80
54746;BMP180;40640;48.130;11.356;2022-08-01T21:32:57;96022.00;;;19.80
54746;BMP180;40640;48.130;11.356;2022-08-01T21:37:00;96022.00;;;19.50
54746;BMP180;40640;48.130;11.356;2022-08-01T21:41:06;96015.00;;;19.40
54746;BMP180;40640;48.130;11.356;2022-08-01T21:45:09;96017.00;;;19.60
54746;BMP180;40640;48.130;11.356;2022-08-01T21:49:16;96009.00;;;19.50
54746;BMP180;40640;48.130;11.356;2022-08-01T21:53:23;96011.00;;;19.50
54746;BMP180;40640;48.130;11.356;2022-08-01T21:57:45;96002.00;;;19.30
54746;BMP180;40640;48.130;11.356;2022-08-01T22:01:58;95994.00;;;19.30
54746;BMP180;40640;48.130;11.356;2022-08-01T22:06:04;95992.00;;;19.20
54746;BMP180;40640;48.130;11.356;2022-08-01T22:10:09;95986.00;;;19.10
54746;BMP180;40640;48.130;11.356;2022-08-01T22:14:15;95979.00;;;18.90
54746;BMP180;40640;48.130;11.356;2022-08-01T22:18:19;95985.00;;;18.70
54746;BMP180;40640;48.130;11.356;2022-08-01T22:22:25;95974.00;;;18.80
54746;BMP180;40640;48.130;11.356;2022-08-01T22:26:50;95957.00;;;18.70
54746;BMP180;40640;48.130;11.356;2022-08-01T22:30:54;95957.00;;;18.70
54746;BMP180;40640;48.130;11.356;2022-08-01T22:34:58;95956.00;;;18.60
54746;BMP180;40640;48.130;11.356;2022-08-01T22:39:02;95948.00;;;18.50
54746;BMP180;40640;48.130;11.356;2022-08-01T22:43:14;95941.00;;;18.40
54746;BMP180;40640;48.130;11.356;2022-08-01T22:47:27;95935.00;;;18.30
54746;BMP180;40640;48.130;11.356;2022-08-01T22:51:40;95918.00;;;18.10
54746;BMP180;40640;48.130;11.356;2022-08-01T22:56:00;95915.00;;;18.00
54746;BMP180;40640;48.130;11.356;2022-08-01T23:00:05;95917.00;;;18.00
54746;BMP180;40640;48.130;11.356;2022-08-01T23:04:11;95915.00;;;18.10
54746;BMP180;40640;48.130;11.356;2022-08-01T23:08:17;95915.00;;;18.20
54746;BMP180;40640;48.130;11.356;2022-08-01T23:12:24;95931.00;;;17.90
54746;BMP180;40640;48.130;11.356;2022-08-01T23:16:29;95924.00;;;17.70
54746;BMP180;40640;48.130;11.356;2022-08-01T23:20:33;95911.00;;;17.50
54746;BMP180;40640;48.130;11.356;2022-08-01T23:24:36;95916.00;;;17.60
54746;BMP180;40640;48.130;11.356;2022-08-01T23:29:02;95920.00;;;17.50
54746;BMP180;40640;48.130;11.356;2022-08-01T23:33:05;95922.00;;;17.40